Time;durP1;ratioP1;P1;durP2;ratioP2;P2;SDS_P1;SDS_P2;PMS_P1;PMS_P2;Temp;Humidity;BMP_temperature;BMP_pressure;BME280_temperature;BME280_humidity;BME280_pressure;Samples;Min_cycle;Max_cycle;Signal;HPM_P1;HPM_P2
2023/08/10 00:00:15;;;;;;;7.53;2.35;;;11.90;99.90;;;13.65;100.00;101052.34;5022274;28;20037;-85
2023/08/10 00:02:42;;;;;;;4.95;2.50;;;12.00;99.90;;;13.58;100.00;101057.94;5022109;28;20057;-84
2023/08/10 00:05:09;;;;;;;5.05;2.20;;;11.90;99.90;;;13.51;100.00;101052.50;5020052;28;20061;-85
2023/08/10 00:07:36;;;;;;;4.95;2.53;;;11.80;99.90;;;13.41;100.00;101054.06;5023320;28;20046;-84
2023/08/10 00:10:08;;;;;;;6.22;2.20;;;11.80;99.90;;;13.37;100.00;101056.41;5025118;28;20129;-84
2023/08/10 00:12:38;;;;;;;6.55;2.40;;;11.60;99.90;;;13.28;100.00;101042.19;5015771;28;20209;-84
2023/08/10 00:15:08;;;;;;;5.43;2.47;;;11.60;99.90;;;13.22;100.00;101038.44;5020446;28;20034;-84
2023/08/10 00:17:33;;;;;;;6.80;3.13;;;11.50;99.90;;;13.11;100.00;101041.06;5022198;28;20116;-84
2023/08/10 00:19:59;;;;;;;8.13;2.70;;;11.40;99.90;;;13.04;100.00;101043.84;5018320;28;20134;-84
2023/08/10 00:22:25;;;;;;;6.75;2.60;;;11.40;99.90;;;13.02;100.00;101029.53;5042133;28;20037;-85
2023/08/10 00:24:51;;;;;;;7.50;2.90;;;11.30;99.90;;;13.13;100.00;101017.03;5036551;28;20061;-84
2023/08/10 00:27:17;;;;;;;9.15;3.03;;;11.40;99.90;;;13.16;100.00;101016.56;5028825;28;20037;-84
2023/08/10 00:29:44;;;;;;;7.80;2.80;;;11.50;99.90;;;13.26;100.00;101016.91;5024691;28;20551;-85
2023/08/10 00:32:09;;;;;;;6.28;3.25;;;11.60;99.90;;;13.22;100.00;101011.03;5020569;28;20070;-84
2023/08/10 00:34:35;;;;;;;6.63;3.08;;;11.60;99.90;;;13.20;100.00;100990.41;5029018;28;20036;-85
2023/08/10 00:37:03;;;;;;;7.72;3.28;;;11.60;99.90;;;13.24;100.00;101003.44;5019219;28;20042;-85
2023/08/10 00:39:30;;;;;;;9.18;3.00;;;11.60;99.90;;;13.21;100.00;100992.06;5021134;28;20033;-85
2023/08/10 00:41:57;;;;;;;7.85;3.55;;;11.60;99.90;;;13.18;100.00;100987.03;5032469;28;20041;-84
2023/08/10 00:44:22;;;;;;;7.68;3.10;;;11.60;99.90;;;13.14;100.00;100986.69;5025348;28;20032;-84
2023/08/10 00:46:49;;;;;;;9.35;3.20;;;11.50;99.90;;;13.01;100.00;100973.09;5028633;28;20042;-84
2023/08/10 00:49:15;;;;;;;8.90;3.47;;;11.50;99.90;;;13.11;100.00;100989.84;5014183;28;20048;-84
2023/08/10 00:51:41;;;;;;;6.90;3.15;;;11.50;99.90;;;13.07;100.00;100986.72;5024898;28;20033;-84
2023/08/10 00:54:07;;;;;;;8.70;4.03;;;11.50;99.90;;;13.07;100.00;100984.00;5034362;28;20095;-84
2023/08/10 00:56:33;;;;;;;5.80;3.38;;;11.40;99.90;;;13.00;100.00;100982.38;5023563;28;20524;-85
2023/08/10 00:58:59;;;;;;;7.68;3.17;;;11.40;99.90;;;13.06;100.00;100982.31;5028808;28;20072;-84
2023/08/10 01:01:24;;;;;;;11.75;3.60;;;11.40;99.90;;;13.03;100.00;100973.72;5026777;28;20068;-84
2023/08/10 01:03:51;;;;;;;10.57;3.88;;;11.50;99.90;;;13.09;100.00;100970.91;5015114;28;20049;-84
2023/08/10 01:07:08;;;;;;;8.48;3.78;;;11.50;99.90;;;13.08;100.00;100962.91;5025765;28;20065;-83
2023/08/10 01:10:18;;;;;;;7.45;3.30;;;11.40;99.90;;;13.05;100.00;100971.56;5005912;28;20050;-84
2023/08/10 01:13:28;;;;;;;7.55;3.72;;;11.40;99.90;;;13.12;100.00;100971.53;4994084;28;20042;-84
2023/08/10 01:16:03;;;;;;;8.48;3.83;;;11.50;99.90;;;13.14;100.00;100970.25;5010675;28;20061;-84
2023/08/10 01:18:30;;;;;;;9.75;3.58;;;11.50;99.90;;;13.30;100.00;100982.50;5034701;28;20096;-84
2023/08/10 01:20:59;;;;;;;7.38;3.28;;;11.50;99.90;;;13.34;100.00;100999.31;5027919;28;20129;-84
2023/08/10 01:23:37;;;;;;;10.30;3.92;;;11.50;99.90;;;13.26;100.00;100997.72;5033812;28;20041;-85
2023/08/10 01:26:05;;;;;;;8.43;3.35;;;11.50;99.90;;;13.40;100.00;100998.44;5020242;28;20397;-84
2023/08/10 01:28:33;;;;;;;10.52;3.92;;;11.50;99.90;;;13.38;100.00;101000.53;5039639;28;20065;-84
2023/08/10 01:31:02;;;;;;;;;;;11.50;99.90;;;13.38;100.00;101008.75;5024779;28;20108;-84
2023/08/10 01:33:29;;;;;;;8.77;3.63;;;11.50;99.90;;;13.48;100.00;101013.75;5019020;28;19964;-84
2023/08/10 01:35:55;;;;;;;7.68;3.63;;;11.50;99.90;;;13.42;100.00;101020.97;5040646;28;20042;-84
2023/08/10 01:38:24;;;;;;;6.30;3.55;;;11.50;99.90;;;13.63;100.00;101032.56;5020432;28;20115;-84
2023/08/10 01:40:51;;;;;;;10.32;3.78;;;11.60;99.90;;;13.55;100.00;101028.25;5024475;28;20116;-84
2023/08/10 01:43:17;;;;;;;6.07;3.50;;;11.60;99.90;;;13.46;100.00;101016.72;5037692;28;20037;-85
2023/08/10 01:45:49;;;;;;;9.00;3.30;;;11.60;99.90;;;13.51;100.00;101027.00;5037627;28;20045;-84
2023/08/10 01:48:29;;;;;;;7.88;3.30;;;11.60;99.90;;;13.38;100.00;101026.03;5031301;28;20048;-84
2023/08/10 01:50:58;;;;;;;7.47;3.30;;;11.50;99.90;;;13.27;100.00;101009.50;5017449;28;20164;-84
2023/08/10 01:53:31;;;;;;;4.72;2.83;;;11.60;99.90;;;13.28;100.00;101012.03;5032447;28;20155;-84
2023/08/10 01:55:58;;;;;;;7.30;3.08;;;11.50;99.90;;;13.24;100.00;101002.56;5012506;28;20033;-84
2023/08/10 01:58:24;;;;;;;7.90;3.60;;;11.50;99.90;;;13.51;100.00;101029.72;5031766;28;20033;-84
2023/08/10 02:00:51;;;;;;;6.13;3.20;;;11.50;99.90;;;13.40;100.00;101019.50;5026619;28;20034;-84
2023/08/10 02:03:18;;;;;;;6.57;3.00;;;11.50;99.90;;;13.33;100.00;101044.22;5026711;28;20061;-85
2023/08/10 02:05:44;;;;;;;11.50;3.13;;;11.40;99.90;;;13.39;100.00;101040.56;5025626;28;20029;-84
2023/08/10 02:08:12;;;;;;;6.93;2.80;;;11.30;99.90;;;13.29;100.00;101051.22;5022304;28;20033;-84
2023/08/10 02:10:38;;;;;;;7.55;3.03;;;11.20;99.90;;;13.28;100.00;101052.28;5025488;28;20037;-84
2023/08/10 02:13:04;;;;;;;8.38;3.08;;;11.10;99.90;;;13.12;100.00;101053.69;5015998;28;20066;-85
2023/08/10 02:15:29;;;;;;;7.43;3.38;;;11.00;99.90;;;13.14;100.00;101054.31;5022048;28;20474;-84
2023/08/10 02:17:56;;;;;;;9.70;3.70;;;11.00;99.90;;;13.12;100.00;101053.69;5029391;28;20029;-84
2023/08/10 02:20:22;;;;;;;7.70;3.13;;;11.00;99.90;;;12.83;100.00;101050.56;5029288;28;20099;-84
2023/08/10 02:22:51;;;;;;;10.02;3.58;;;10.90;99.90;;;12.72;100.00;101055.66;5023214;28;20056;-84
2023/08/10 02:25:19;;;;;;;6.45;3.40;;;10.80;99.90;;;12.77;100.00;101064.06;5013445;28;20034;-84
2023/08/10 02:27:46;;;;;;;8.68;3.70;;;10.80;99.90;;;12.60;100.00;101057.44;5021390;28;20041;-84
2023/08/10 02:30:14;;;;;;;9.20;3.90;;;10.80;99.90;;;12.40;100.00;101052.09;5041881;28;20108;-84
2023/08/10 02:32:40;;;;;;;7.22;3.80;;;10.80;99.90;;;11.73;100.00;101020.41;5024958;28;20025;-83
2023/08/10 02:35:06;;;;;;;11.35;4.35;;;10.70;99.90;;;12.03;100.00;100982.41;5024173;28;20063;-84
2023/08/10 02:37:33;;;;;;;7.53;3.80;;;10.70;99.90;;;11.88;100.00;100990.88;5023841;28;20125;-83
2023/08/10 02:40:00;;;;;;;9.52;3.78;;;10.70;99.90;;;12.37;100.00;100982.22;5019700;28;20037;-84
2023/08/10 02:42:26;;;;;;;9.02;3.72;;;10.70;99.90;;;12.35;100.00;101014.44;5021058;28;20508;-84
2023/08/10 02:44:52;;;;;;;6.95;4.30;;;10.70;99.90;;;12.34;100.00;101001.81;5021865;28;20030;-84
2023/08/10 02:47:18;;;;;;;8.27;4.00;;;10.70;99.90;;;12.44;100.00;101021.31;5025778;28;20462;-83
2023/08/10 02:49:44;;;;;;;7.57;3.95;;;10.70;99.90;;;12.46;100.00;101023.84;5031076;28;20043;-83
2023/08/10 02:52:10;;;;;;;6.70;4.13;;;10.70;99.90;;;12.54;100.00;101030.97;5024501;28;20516;-84
2023/08/10 02:54:36;;;;;;;9.45;3.90;;;10.60;99.90;;;12.45;100.00;101035.84;5045023;28;20500;-83
2023/08/10 02:57:01;;;;;;;9.50;3.85;;;10.60;99.90;;;12.52;100.00;101037.50;5033443;28;20038;-84
2023/08/10 02:59:27;;;;;;;6.55;4.28;;;10.60;99.90;;;12.41;100.00;101043.66;5035327;28;20053;-83
2023/08/10 03:01:53;;;;;;;8.95;4.13;;;10.60;99.90;;;12.42;100.00;101049.97;5030043;28;20037;-83
2023/08/10 03:04:19;;;;;;;6.90;3.60;;;10.50;99.90;;;12.33;100.00;101047.50;5031168;28;20121;-84
2023/08/10 03:06:44;;;;;;;5.60;3.20;;;10.40;99.90;;;12.23;100.00;101042.50;5045859;28;20029;-84
2023/08/10 03:09:10;;;;;;;7.22;3.38;;;10.40;99.90;;;12.20;100.00;101053.88;5031948;28;20056;-84
2023/08/10 03:11:37;;;;;;;7.88;3.85;;;10.30;99.90;;;12.14;100.00;101052.00;5034990;28;20084;-85
2023/08/10 03:14:03;;;;;;;6.90;3.72;;;10.30;99.90;;;12.11;100.00;101054.34;5027368;28;20049;-84
2023/08/10 03:16:30;;;;;;;5.27;3.47;;;10.30;99.90;;;12.10;100.00;101048.03;5026853;28;20034;-84
2023/08/10 03:18:57;;;;;;;6.43;3.78;;;10.30;99.90;;;12.15;100.00;101045.47;5039065;28;20032;-83
2023/08/10 03:21:23;;;;;;;10.13;4.00;;;10.40;99.90;;;12.15;100.00;101050.13;5024661;28;20026;-84
2023/08/10 03:23:49;;;;;;;6.43;3.60;;;10.40;99.90;;;12.03;100.00;101033.56;5016679;28;20038;-83
2023/08/10 03:26:15;;;;;;;9.35;4.32;;;10.30;99.90;;;12.10;100.00;101036.25;5019602;28;20029;-84
2023/08/10 03:28:42;;;;;;;6.97;4.17;;;10.40;99.90;;;12.13;100.00;101036.66;5039298;28;20516;-84
2023/08/10 03:31:14;;;;;;;9.70;4.07;;;10.40;99.90;;;12.28;100.00;101030.06;5024869;28;20113;-83
2023/08/10 03:33:41;;;;;;;9.20;3.92;;;10.40;99.90;;;12.27;100.00;101031.13;5019616;28;20474;-84
2023/08/10 03:36:07;;;;;;;9.48;4.50;;;10.40;99.90;;;12.18;100.00;101044.22;5024982;28;20068;-84
2023/08/10 03:38:33;;;;;;;12.13;4.88;;;10.40;99.90;;;11.99;100.00;101027.63;5026251;28;20044;-83
2023/08/10 03:41:00;;;;;;;7.45;4.32;;;10.40;99.90;;;11.94;100.00;101011.06;5009343;28;20026;-83
2023/08/10 03:43:26;;;;;;;8.73;4.25;;;10.40;99.90;;;11.94;100.00;101000.97;4997194;28;20034;-83
2023/08/10 03:45:53;;;;;;;7.57;4.38;;;10.40;99.90;;;11.97;100.00;101004.31;5020924;28;20029;-83
2023/08/10 03:48:19;;;;;;;8.32;4.35;;;10.50;99.90;;;12.06;100.00;101001.13;5019802;28;20030;-84
2023/08/10 03:50:46;;;;;;;6.88;4.30;;;10.50;99.90;;;11.96;100.00;101002.66;5024922;28;20057;-84
2023/08/10 03:53:14;;;;;;;9.73;4.38;;;10.40;99.90;;;12.10;100.00;101015.22;5042109;28;20371;-83
2023/08/10 03:55:41;;;;;;;7.28;4.15;;;10.40;99.90;;;12.02;100.00;101023.69;5036057;28;20163;-85
2023/08/10 03:58:08;;;;;;;8.30;4.60;;;10.30;99.90;;;11.56;100.00;101003.63;5037445;28;20036;-84
2023/08/10 04:00:35;;;;;;;8.80;4.07;;;10.40;99.90;;;11.88;100.00;100987.31;5028715;28;20393;-84
2023/08/10 04:03:01;;;;;;;10.43;4.90;;;10.40;99.90;;;12.10;100.00;100987.03;5028885;28;20037;-84
2023/08/10 04:05:27;;;;;;;9.80;4.28;;;10.40;99.90;;;11.55;100.00;100977.38;5018129;28;20068;-84
2023/08/10 04:07:53;;;;;;;8.02;4.65;;;10.40;99.90;;;12.03;100.00;101003.47;5025930;28;20393;-84
2023/08/10 04:10:19;;;;;;;8.80;4.50;;;10.40;99.90;;;11.84;100.00;101008.78;5027108;28;20413;-84
2023/08/10 04:12:45;;;;;;;7.82;4.68;;;10.40;99.90;;;11.98;100.00;101011.47;5024892;28;20099;-84
2023/08/10 04:15:11;;;;;;;9.07;4.57;;;10.40;99.90;;;12.00;100.00;101028.50;5027143;28;20042;-85
2023/08/10 04:17:38;;;;;;;9.52;4.38;;;10.40;99.90;;;11.91;100.00;101025.16;5027474;28;20044;-83
2023/08/10 04:20:09;;;;;;;11.00;4.60;;;10.30;99.90;;;11.75;100.00;101019.09;5027998;28;20033;-85
2023/08/10 04:22:36;;;;;;;10.70;4.55;;;10.20;99.90;;;11.27;100.00;100998.44;5028402;28;20033;-84
2023/08/10 04:25:03;;;;;;;7.43;4.50;;;10.20;99.90;;;11.15;100.00;100983.75;5022571;28;20359;-83
2023/08/10 04:27:29;;;;;;;8.20;4.38;;;10.20;99.90;;;11.18;100.00;100958.75;5026960;28;20059;-81
2023/08/10 04:29:55;;;;;;;7.53;4.68;;;10.20;99.90;;;11.18;100.00;100940.47;5027906;28;20073;-82
2023/08/10 04:32:20;;;;;;;7.10;4.90;;;10.30;99.90;;;11.32;100.00;100945.91;5017862;28;20128;-82
2023/08/10 04:34:46;;;;;;;9.32;5.65;;;10.30;99.90;;;11.43;100.00;100939.75;5028358;28;20045;-80
2023/08/10 04:37:12;;;;;;;9.55;5.03;;;10.40;99.90;;;11.30;100.00;100926.16;5029245;28;20048;-82
2023/08/10 04:39:38;;;;;;;8.98;5.38;;;10.50;99.90;;;11.42;100.00;100913.50;5024834;28;20037;-81
2023/08/10 04:42:03;;;;;;;12.13;6.80;;;10.60;99.90;;;11.68;100.00;100908.16;5012937;28;20046;-83
2023/08/10 04:44:29;;;;;;;14.32;7.10;;;10.70;99.90;;;12.45;100.00;100934.63;5025125;28;20051;-85
2023/08/10 04:46:55;;;;;;;14.60;7.80;;;10.80;99.90;;;12.75;100.00;100966.78;5020929;28;20037;-84
2023/08/10 04:49:20;;;;;;;12.93;8.27;;;10.90;99.90;;;13.08;100.00;101002.09;5019695;28;20038;-85
2023/08/10 04:51:46;;;;;;;20.67;8.85;;;11.10;99.90;;;13.22;100.00;101010.19;5025218;28;20041;-86
2023/08/10 04:54:12;;;;;;;14.77;8.50;;;11.30;99.90;;;13.28;100.00;101036.69;5025944;28;20041;-84
2023/08/10 04:56:38;;;;;;;14.63;8.18;;;11.40;99.90;;;13.45;100.00;101053.41;5024854;28;20042;-84
2023/08/10 04:59:04;;;;;;;15.70;8.05;;;11.50;99.90;;;13.07;100.00;101047.00;5043859;28;20034;-85
2023/08/10 05:01:30;;;;;;;13.10;7.95;;;11.60;99.90;;;12.84;100.00;101033.06;5024233;28;20030;-83
2023/08/10 05:03:56;;;;;;;19.60;10.18;;;11.70;99.90;;;12.62;100.00;101008.78;5016456;28;20513;-83
2023/08/10 05:06:22;;;;;;;14.02;8.77;;;11.70;99.90;;;12.90;100.00;100985.63;5023601;28;20038;-84
2023/08/10 05:08:47;;;;;;;11.80;7.85;;;11.70;99.90;;;13.16;100.00;100983.69;5030467;28;20052;-85
2023/08/10 05:11:13;;;;;;;11.63;7.53;;;11.80;99.90;;;13.18;100.00;100987.03;5045229;28;20092;-82
2023/08/10 05:13:40;;;;;;;12.48;7.32;;;11.80;99.90;;;13.14;100.00;100988.56;5028114;28;20069;-82
2023/08/10 05:16:05;;;;;;;11.95;7.57;;;11.90;99.90;;;13.33;100.00;100994.91;5035440;28;20037;-81
2023/08/10 05:18:31;;;;;;;15.02;8.38;;;11.80;99.90;;;13.65;100.00;101020.31;5026318;28;20083;-81
2023/08/10 05:21:02;;;;;;;15.05;8.82;;;11.90;99.90;;;13.42;100.00;101020.09;5023775;28;20060;-83
2023/08/10 05:23:28;;;;;;;20.05;9.88;;;12.00;99.90;;;13.36;100.00;100994.44;5024756;28;20041;-78
2023/08/10 05:25:54;;;;;;;16.60;9.80;;;12.20;99.90;;;13.98;100.00;100995.44;5019298;28;20045;-81
2023/08/10 05:28:19;;;;;;;19.67;9.80;;;12.30;99.90;;;14.01;100.00;101016.91;5030316;28;20053;-79
2023/08/10 05:30:45;;;;;;;17.42;9.73;;;12.40;99.90;;;14.05;100.00;101024.47;5019509;28;20505;-79
2023/08/10 05:33:11;;;;;;;17.17;9.18;;;12.60;99.90;;;13.99;100.00;101043.75;5022697;28;20037;-79
2023/08/10 05:35:36;;;;;;;17.50;9.10;;;12.60;99.90;;;14.15;100.00;101051.34;5032182;28;20045;-79
2023/08/10 05:38:03;;;;;;;19.75;9.65;;;12.70;99.90;;;14.33;100.00;101068.88;5025439;28;20036;-80
2023/08/10 05:40:29;;;;;;;15.10;8.20;;;12.70;99.90;;;14.52;100.00;101072.41;5026620;28;20045;-80
2023/08/10 05:42:55;;;;;;;19.90;8.15;;;12.80;99.90;;;14.20;100.00;101062.47;5024755;28;20034;-80
2023/08/10 05:45:21;;;;;;;14.48;7.57;;;12.90;99.90;;;14.26;100.00;101065.34;5030277;28;20052;-79
2023/08/10 05:47:50;;;;;;;12.60;7.47;;;13.00;99.90;;;14.69;100.00;101053.34;5023707;28;20199;-79
2023/08/10 05:50:17;;;;;;;12.30;7.22;;;13.20;99.90;;;15.05;100.00;101106.50;5026850;28;20062;-80
2023/08/10 05:52:44;;;;;;;10.17;6.37;;;13.20;99.90;;;15.10;100.00;101144.25;5027894;28;20044;-80
2023/08/10 05:55:12;;;;;;;12.88;6.60;;;13.30;99.90;;;14.93;100.00;101163.31;5027473;28;20385;-82
2023/08/10 05:57:39;;;;;;;13.18;6.18;;;13.50;99.90;;;15.28;100.00;101183.75;5029778;28;20052;-87
2023/08/10 06:00:07;;;;;;;14.00;6.53;;;13.60;99.90;;;15.06;100.00;101179.59;5018828;28;20042;-81
2023/08/10 06:02:38;;;;;;;12.88;6.20;;;13.80;99.90;;;14.93;100.00;101179.81;5031307;28;20045;-81
2023/08/10 06:05:06;;;;;;;9.75;5.57;;;13.90;99.90;;;15.13;100.00;101184.19;5044582;28;20037;-79
2023/08/10 06:07:33;;;;;;;13.32;5.65;;;14.10;99.90;;;15.22;100.00;101185.50;5028183;28;20054;-81
2023/08/10 06:09:59;;;;;;;12.95;5.55;;;14.20;99.90;;;15.20;100.00;101187.66;5025978;28;20046;-82
2023/08/10 06:12:25;;;;;;;12.23;5.20;;;14.40;99.90;;;15.18;100.00;101196.13;5031204;28;20048;-83
2023/08/10 06:14:51;;;;;;;12.02;5.18;;;14.50;99.90;;;15.52;100.00;101204.72;5022347;28;20058;-80
2023/08/10 06:17:16;;;;;;;11.70;4.70;;;14.60;99.90;;;15.49;100.00;101218.91;5030624;28;20449;-79
2023/08/10 06:19:51;;;;;;;11.00;4.45;;;14.80;99.90;;;15.58;100.00;101235.91;5031174;28;20473;-79
2023/08/10 06:22:17;;;;;;;10.73;4.15;;;14.90;99.90;;;15.66;100.00;101238.34;5021120;28;20033;-81
2023/08/10 06:24:43;;;;;;;9.32;4.10;;;15.00;99.90;;;15.94;100.00;101247.00;5025861;28;20065;-84
2023/08/10 06:27:09;;;;;;;11.43;4.03;;;15.10;99.90;;;16.25;100.00;101254.06;5022455;28;20077;-83
2023/08/10 06:29:35;;;;;;;10.13;4.10;;;15.20;99.90;;;16.32;100.00;101253.94;5015398;28;20563;-84
2023/08/10 06:32:07;;;;;;;7.70;3.70;;;15.40;99.90;;;16.29;100.00;101268.16;5035126;28;20026;-82
2023/08/10 06:34:33;;;;;;;7.57;3.60;;;15.50;99.90;;;16.45;100.00;101274.88;5017639;28;20121;-82
2023/08/10 06:36:59;;;;;;;8.07;3.40;;;15.60;99.90;;;16.67;100.00;101283.34;5028999;28;20041;-84
2023/08/10 06:39:27;;;;;;;7.75;3.20;;;15.80;99.90;;;16.91;100.00;101282.44;5024663;28;20033;-80
2023/08/10 06:41:53;;;;;;;8.25;2.80;;;16.00;99.90;;;17.37;100.00;101297.16;5022121;28;20076;-78
2023/08/10 06:44:20;;;;;;;7.53;2.90;;;16.20;99.90;;;17.43;100.00;101300.88;5044406;28;20038;-81
2023/08/10 06:46:46;;;;;;;7.65;2.88;;;16.40;99.90;;;17.29;100.00;101286.53;5025502;28;20041;-81
2023/08/10 06:49:12;;;;;;;7.22;3.08;;;16.60;99.90;;;17.21;100.00;101286.91;5023688;28;20034;-81
2023/08/10 06:51:38;;;;;;;7.93;3.00;;;16.70;99.90;;;17.09;100.00;101303.50;5029374;28;20033;-79
2023/08/10 06:54:04;;;;;;;6.07;2.80;;;16.80;99.90;;;17.54;100.00;101302.72;5021029;28;20045;-79
2023/08/10 06:56:29;;;;;;;7.38;3.20;;;16.80;99.90;;;17.92;100.00;101296.75;5023354;28;20046;-80
2023/08/10 06:58:55;;;;;;;6.75;3.20;;;16.90;99.90;;;17.92;100.00;101305.84;5024094;28;20036;-80
2023/08/10 07:01:21;;;;;;;7.90;2.92;;;16.90;99.90;;;17.86;100.00;101303.25;5029781;28;20034;-78
2023/08/10 07:03:47;;;;;;;5.38;1.63;;;17.00;99.90;;;17.85;100.00;101313.47;5029985;28;20477;-82
2023/08/10 07:06:13;;;;;;;5.18;1.50;;;16.90;99.90;;;17.96;100.00;101311.72;5029949;28;20120;-78
2023/08/10 07:08:39;;;;;;;3.65;1.58;;;17.10;99.90;;;18.30;100.00;101314.50;5029704;28;20084;-78
2023/08/10 07:11:05;;;;;;;7.70;1.70;;;17.20;99.90;;;18.24;100.00;101308.03;5019155;28;20138;-78
2023/08/10 07:13:31;;;;;;;5.28;1.40;;;17.20;99.90;;;18.72;100.00;101312.34;5021358;28;20401;-79
2023/08/10 07:15:57;;;;;;;7.30;1.58;;;17.30;99.90;;;18.78;100.00;101319.59;5028418;28;20052;-78
2023/08/10 07:18:23;;;;;;;4.78;1.58;;;17.40;99.90;;;18.51;100.00;101310.09;5043028;28;20405;-79
2023/08/10 07:20:49;;;;;;;10.95;1.90;;;17.40;99.90;;;18.86;100.00;101315.56;5030861;28;20511;-78
2023/08/10 07:23:17;;;;;;;5.68;1.70;;;17.40;99.90;;;18.61;100.00;101314.13;5036232;28;20034;-79
2023/08/10 07:25:45;;;;;;;4.60;1.65;;;17.40;99.90;;;18.65;100.00;101313.31;5029779;28;20414;-78
2023/08/10 07:28:11;;;;;;;6.60;1.65;;;17.50;99.90;;;18.77;100.00;101313.22;5026192;28;20038;-79
2023/08/10 07:30:37;;;;;;;7.22;1.50;;;17.60;99.90;;;18.78;100.00;101311.31;5021790;28;20033;-78
2023/08/10 07:33:04;;;;;;;7.00;1.65;;;17.60;99.90;;;18.67;100.00;101318.63;5021180;28;20042;-78
2023/08/10 07:35:30;;;;;;;4.93;1.50;;;17.60;99.90;;;18.88;100.00;101313.38;5027143;28;20044;-78
2023/08/10 07:37:55;;;;;;;5.03;1.50;;;17.70;99.90;;;18.93;100.00;101317.00;5025831;28;20042;-78
2023/08/10 07:40:21;;;;;;;7.07;1.95;;;17.80;99.90;;;19.16;100.00;101325.34;5030985;28;20080;-78
2023/08/10 07:42:47;;;;;;;8.73;1.50;;;17.90;99.90;;;19.07;100.00;101323.00;5026481;28;20041;-78
2023/08/10 07:45:13;;;;;;;6.38;1.75;;;17.90;99.90;;;18.93;100.00;101322.53;5043457;28;20037;-77
2023/08/10 07:47:39;;;;;;;5.57;1.52;;;18.00;99.90;;;18.76;100.00;101328.13;5023661;28;20140;-80
2023/08/10 07:50:05;;;;;;;10.27;1.77;;;18.00;99.90;;;19.00;100.00;101314.09;5027206;28;20042;-80
2023/08/10 07:52:31;;;;;;;5.75;1.80;;;18.20;99.90;;;19.15;100.00;101318.16;5026313;28;20077;-80
2023/08/10 07:54:57;;;;;;;4.75;1.30;;;18.30;99.90;;;19.26;100.00;101311.63;5028875;28;20061;-81
2023/08/10 07:57:23;;;;;;;9.98;1.77;;;18.50;99.90;;;19.53;100.00;101308.88;5029242;28;20442;-78
2023/08/10 07:59:49;;;;;;;9.63;1.90;;;18.60;99.90;;;19.72;100.00;101307.66;5029069;28;20405;-78
2023/08/10 08:02:15;;;;;;;7.43;1.70;;;18.80;99.90;;;19.72;100.00;101299.38;5029561;28;20064;-78
2023/08/10 08:04:41;;;;;;;5.05;1.33;;;18.90;99.90;;;20.14;100.00;101318.00;5028522;28;20035;-79
2023/08/10 08:07:06;;;;;;;5.10;1.40;;;19.10;99.90;;;19.86;100.00;101305.31;5022733;28;20120;-78
2023/08/10 08:09:32;;;;;;;7.18;1.42;;;19.10;99.90;;;20.22;100.00;101306.44;5029113;28;20401;-78
2023/08/10 08:11:58;;;;;;;8.15;1.88;;;19.30;99.90;;;20.65;100.00;101311.13;5023491;28;20045;-78
2023/08/10 08:14:23;;;;;;;6.00;1.48;;;19.60;99.90;;;21.13;100.00;101319.44;5029025;28;20045;-78
2023/08/10 08:16:49;;;;;;;6.53;1.60;;;20.10;99.90;;;21.52;96.77;101318.16;5043000;28;20045;-79
2023/08/10 08:19:15;;;;;;;6.65;1.60;;;20.40;99.90;;;21.82;97.23;101319.31;5029626;28;20029;-79
2023/08/10 08:21:41;;;;;;;6.05;1.50;;;20.70;99.90;;;21.48;96.29;101325.31;5029096;28;20056;-78
2023/08/10 08:24:07;;;;;;;5.20;1.35;;;20.60;99.90;;;21.41;98.25;101318.09;5029497;28;20087;-78
2023/08/10 08:26:33;;;;;;;5.57;1.50;;;20.40;99.90;;;20.93;98.19;101317.38;5025843;28;20409;-77
2023/08/10 08:28:59;;;;;;;8.07;1.50;;;20.10;99.90;;;20.93;100.00;101311.84;5028683;28;20044;-78
2023/08/10 08:31:26;;;;;;;8.43;1.50;;;20.00;99.90;;;20.88;98.78;101323.78;5023145;28;20057;-78
2023/08/10 08:33:52;;;;;;;6.47;1.52;;;19.80;99.90;;;20.12;100.00;101314.66;5027548;28;20038;-78
2023/08/10 08:36:18;;;;;;;5.03;1.67;;;19.60;99.90;;;19.56;100.00;101324.13;5028737;28;20038;-79
2023/08/10 08:38:44;;;;;;;5.03;1.38;;;19.20;99.90;;;19.35;100.00;101318.34;5028623;28;20033;-78
2023/08/10 08:41:10;;;;;;;5.82;1.45;;;18.90;99.90;;;19.59;100.00;101320.00;5028589;28;20050;-78
2023/08/10 08:43:37;;;;;;;4.80;1.38;;;18.70;99.90;;;19.52;100.00;101326.59;5021914;28;20053;-78
2023/08/10 08:46:06;;;;;;;6.23;1.70;;;18.50;99.90;;;19.55;100.00;101327.97;5028675;28;20037;-78
2023/08/10 08:48:33;;;;;;;5.28;1.45;;;18.60;99.90;;;19.48;100.00;101324.59;5028395;28;20120;-78
2023/08/10 08:50:59;;;;;;;5.60;1.40;;;18.60;99.90;;;19.98;100.00;101325.34;5024342;28;20393;-79
2023/08/10 08:53:25;;;;;;;4.47;1.38;;;18.90;99.90;;;20.46;100.00;101319.06;5028379;28;20303;-78
2023/08/10 08:55:51;;;;;;;3.72;1.25;;;19.40;99.90;;;21.13;100.00;101320.25;5041413;28;20033;-78
2023/08/10 08:58:18;;;;;;;4.80;1.30;;;19.90;99.90;;;21.62;98.04;101322.88;5032750;28;20112;-78
2023/08/10 09:00:50;;;;;;;5.28;1.40;;;20.50;99.90;;;21.51;93.21;101333.13;5031493;28;20034;-78
2023/08/10 09:03:17;;;;;;;5.88;1.60;;;20.60;99.80;;;21.53;93.39;101325.38;5032389;28;20037;-78
2023/08/10 09:05:46;;;;;;;3.92;1.30;;;20.80;99.20;;;21.46;95.52;101333.94;5047404;28;20481;-78
2023/08/10 09:08:16;;;;;;;4.82;1.23;;;20.60;98.80;;;21.63;97.74;101324.56;5029645;28;20037;-78
2023/08/10 09:10:46;;;;;;;6.72;2.03;;;20.60;99.90;;;21.68;94.80;101325.41;5032534;28;20103;-79
2023/08/10 09:13:19;;;;;;;4.47;1.40;;;20.70;99.90;;;21.72;96.03;101334.03;5044245;28;20030;-78
2023/08/10 09:15:45;;;;;;;6.07;1.40;;;20.70;99.90;;;21.89;89.48;101330.97;5032053;28;20126;-78
2023/08/10 09:18:11;;;;;;;5.15;1.40;;;20.90;97.10;;;21.95;88.34;101332.63;5046659;28;20378;-78
2023/08/10 09:20:37;;;;;;;4.75;1.45;;;21.10;96.90;;;22.25;88.47;101335.69;5027891;28;20040;-81
2023/08/10 09:23:04;;;;;;;7.32;1.48;;;21.30;97.50;;;21.56;88.52;101311.75;5023560;28;20117;-77
2023/08/10 09:25:37;;;;;;;5.88;1.55;;;21.00;96.20;;;21.75;88.59;101327.06;5029024;28;20044;-78
2023/08/10 09:28:12;;;;;;;3.97;1.50;;;20.90;96.90;;;21.83;92.71;101334.88;5026823;28;20131;-79
2023/08/10 09:30:38;;;;;;;6.47;1.48;;;20.80;98.20;;;21.63;89.60;101330.09;5019805;28;20038;-78
2023/08/10 09:33:04;;;;;;;5.63;1.40;;;20.90;96.90;;;21.74;84.48;101323.47;5026406;28;20049;-78
2023/08/10 09:35:31;;;;;;;8.10;1.67;;;20.90;95.30;;;22.06;85.79;101325.16;5025959;28;20030;-78
2023/08/10 09:38:02;;;;;;;8.23;1.40;;;21.10;96.50;;;22.29;75.77;101314.56;5027102;28;20048;-79
2023/08/10 09:40:28;;;;;;;5.72;1.40;;;21.30;92.90;;;22.58;85.02;101325.09;5016294;28;20164;-79
2023/08/10 09:42:54;;;;;;;6.90;1.52;;;21.60;96.10;;;22.61;84.75;101327.31;5029347;28;20033;-78
2023/08/10 09:45:19;;;;;;;7.55;1.50;;;21.70;95.20;;;22.75;79.68;101324.78;5030660;28;20043;-78
2023/08/10 09:47:46;;;;;;;5.88;1.40;;;21.90;93.80;;;22.63;83.75;101330.66;5030528;28;20037;-77
2023/08/10 09:50:16;;;;;;;5.30;1.48;;;21.80;94.50;;;22.33;81.47;101317.63;5031678;28;20029;-78
2023/08/10 09:52:44;;;;;;;4.72;1.38;;;21.40;93.70;;;22.34;78.79;101333.19;5027571;28;20038;-78
2023/08/10 09:55:11;;;;;;;6.38;1.40;;;21.40;92.90;;;22.29;69.63;101324.88;5024264;28;20033;-78
2023/08/10 09:57:40;;;;;;;3.80;1.20;;;21.40;90.50;;;21.69;73.06;101334.59;5046681;28;20091;-77
2023/08/10 10:00:18;;;;;;;4.03;1.35;;;21.00;90.80;;;21.66;74.22;101338.72;5029626;28;20030;-77
2023/08/10 10:02:46;;;;;;;6.18;1.73;;;20.90;91.10;;;21.44;76.29;101343.66;5025901;28;20045;-78
2023/08/10 10:05:12;;;;;;;4.53;1.30;;;20.80;91.30;;;21.89;75.85;101333.75;5027475;28;20441;-78